Air Navigation Services of Czech Republic
Airport: LKPD Updated:  23.09.2018 23:01:06  UTC
 METAR LKPD 23.09. 23:00 ...
METAR LKPD 232300Z 29020G33KT 9999 BKN017 OVC028 12/08 Q1008 RMK WHT=
 TAF LKPD 23.09. 17:00 ...
TAF LKPD 231700Z 2318/2418 22012KT CAVOK      BECMG 2318/2320 30018G30KT      TEMPO 2318/2407 29022G40KT 8000 RA SCT012 BKN020      PROB40 TEMPO 2318/2323 29024G46KT 4000 RA OVC008      PROB30 TEMPO 2318/2323 29025G50KT 2000 TSRA BKN014CB      TEMPO 2406/2410 BKN027      PROB40 TEMPO 2410/2418 SHRA BKN035=